Terminal Aerodrome Forecast
Issued by NWS

Home | Current Version | Previous Version | Text Only | Print | Product List | Glossary On
Versions: 1 2 3 4 5 6 7 8 9 10 11 12 13 14 15 16 17 18 19 20 21 22 23 24 25 26
000
FTUS44 KEWX 260350 AAE
TAFSSF
TAF AMD
KSSF 260350Z 2604/2624 10010KT P6SM VCTS BKN050CB BKN250
     FM260445 VRB04KT P6SM BKN050
     FM261000 VRB04KT 4SM BR SCT010
     FM261500 14006KT P6SM SCT040
     FM261900 14005KT P6SM VCTS BKN040CB=

USA.gov is the U.S. government's official web portal to all federal, state and local government web resources and services.